createdAt,value
2018-07-13T00:02:12.549Z,20.39
2018-07-13T00:04:38.900Z,20.37
2018-07-13T00:07:05.188Z,20.36
2018-07-13T00:09:31.535Z,20.30
2018-07-13T00:11:57.824Z,20.34
2018-07-13T00:14:24.142Z,20.38
2018-07-13T00:16:50.491Z,20.38
2018-07-13T00:19:16.802Z,20.38
2018-07-13T00:21:43.117Z,20.30
2018-07-13T00:24:09.481Z,20.21
2018-07-13T00:26:35.816Z,20.22
2018-07-13T00:29:02.136Z,20.09
2018-07-13T00:31:28.473Z,20.02
2018-07-13T00:33:54.805Z,20.12
2018-07-13T00:36:21.170Z,20.01
2018-07-13T00:38:47.478Z,19.92
2018-07-13T00:41:13.827Z,19.92
2018-07-13T00:43:40.129Z,20.02
2018-07-13T00:46:06.467Z,19.93
2018-07-13T00:48:32.782Z,19.78
2018-07-13T00:50:59.097Z,19.85
2018-07-13T00:53:25.406Z,19.99
2018-07-13T00:55:51.724Z,20.09
2018-07-13T00:58:18.033Z,20.20
2018-07-13T01:00:44.350Z,20.04
2018-07-13T01:03:10.663Z,19.90
2018-07-13T01:05:36.985Z,20.03
2018-07-13T01:08:03.363Z,20.11
2018-07-13T01:10:29.670Z,19.88
2018-07-13T01:12:56.130Z,19.81
2018-07-13T01:15:22.447Z,19.80
2018-07-13T01:17:48.759Z,19.88
2018-07-13T01:20:15.077Z,19.96
2018-07-13T01:22:41.430Z,19.90
2018-07-13T01:25:07.750Z,19.85
2018-07-13T01:27:34.069Z,19.83
2018-07-13T01:30:00.394Z,19.61
2018-07-13T01:32:26.719Z,19.61
2018-07-13T01:34:53.029Z,19.59
2018-07-13T01:37:19.344Z,19.62
2018-07-13T01:39:45.660Z,19.50
2018-07-13T01:42:11.963Z,19.46
2018-07-13T01:44:38.290Z,19.34
2018-07-13T01:47:04.601Z,19.20
2018-07-13T01:49:30.917Z,19.10
2018-07-13T01:51:57.235Z,19.13
2018-07-13T01:54:23.553Z,19.26
2018-07-13T01:56:49.870Z,19.29
2018-07-13T01:59:16.185Z,19.25
2018-07-13T02:01:42.510Z,19.28
2018-07-13T02:04:08.824Z,19.18
2018-07-13T02:06:35.138Z,19.16
2018-07-13T02:09:01.467Z,19.25
2018-07-13T02:11:27.787Z,19.31
2018-07-13T02:13:54.095Z,19.18
2018-07-13T02:16:20.424Z,19.18
2018-07-13T02:18:46.744Z,19.32
2018-07-13T02:21:13.080Z,19.32
2018-07-13T02:23:39.392Z,19.28
2018-07-13T02:26:05.740Z,19.15
2018-07-13T02:28:32.031Z,19.11
2018-07-13T02:30:58.347Z,19.16
2018-07-13T02:33:24.732Z,19.20
2018-07-13T02:35:51.014Z,19.18
2018-07-13T02:38:17.328Z,19.20
2018-07-13T02:40:43.635Z,19.29
2018-07-13T02:43:09.947Z,19.27
2018-07-13T02:45:36.264Z,19.29
2018-07-13T02:48:02.587Z,19.21
2018-07-13T02:50:28.896Z,19.23
2018-07-13T02:52:55.208Z,19.26
2018-07-13T02:55:21.536Z,19.25
2018-07-13T02:57:47.860Z,19.29
2018-07-13T03:00:14.172Z,19.23
2018-07-13T03:02:40.485Z,19.02
2018-07-13T03:05:06.817Z,18.90
2018-07-13T03:07:33.128Z,18.91
2018-07-13T03:09:59.499Z,19.03
2018-07-13T03:12:25.803Z,18.97
2018-07-13T03:14:52.130Z,18.99
2018-07-13T03:17:18.443Z,18.89
2018-07-13T03:19:44.762Z,18.88
2018-07-13T03:22:11.119Z,19.06
2018-07-13T03:24:37.407Z,19.17
2018-07-13T03:27:03.735Z,19.23
2018-07-13T03:29:30.045Z,19.24
2018-07-13T03:31:56.365Z,19.28
2018-07-13T03:34:22.680Z,19.25
2018-07-13T03:36:49.003Z,19.14
2018-07-13T03:39:15.343Z,19.09
2018-07-13T03:41:41.717Z,18.97
2018-07-13T03:44:08.025Z,18.95
2018-07-13T03:46:34.335Z,18.73
2018-07-13T03:49:00.658Z,18.71
2018-07-13T03:51:26.971Z,18.62
2018-07-13T03:53:53.285Z,18.58
2018-07-13T03:56:19.608Z,18.67
2018-07-13T03:58:45.921Z,18.72
2018-07-13T04:01:12.280Z,18.70
2018-07-13T04:03:38.597Z,18.76
2018-07-13T04:06:04.907Z,18.81
2018-07-13T04:08:31.222Z,18.85
2018-07-13T04:10:57.535Z,18.92
2018-07-13T04:13:23.854Z,19.04
2018-07-13T04:15:50.188Z,19.18
2018-07-13T04:18:16.520Z,19.30
2018-07-13T04:20:42.835Z,19.28
2018-07-13T04:23:09.156Z,19.29
2018-07-13T04:25:35.474Z,19.30
2018-07-13T04:28:01.811Z,19.39
2018-07-13T04:30:28.159Z,19.49
2018-07-13T04:32:54.481Z,19.49
2018-07-13T04:35:20.800Z,19.57
2018-07-13T04:37:47.152Z,19.76
2018-07-13T04:40:13.470Z,20.00
2018-07-13T04:42:39.855Z,19.96
2018-07-13T04:45:06.197Z,20.06
2018-07-13T04:47:32.510Z,20.25
2018-07-13T04:52:25.167Z,20.51
2018-07-13T04:54:51.476Z,20.54
2018-07-13T04:57:17.788Z,20.64
2018-07-13T04:59:44.112Z,20.78
2018-07-13T05:02:10.423Z,21.03
2018-07-13T05:04:36.731Z,21.14
2018-07-13T05:07:03.046Z,21.26
2018-07-13T05:09:29.360Z,21.52
2018-07-13T05:11:55.709Z,21.68
2018-07-13T05:14:22.023Z,21.78
2018-07-13T05:16:48.349Z,21.95
2018-07-13T05:19:14.669Z,22.30
2018-07-13T05:21:41.058Z,22.59
2018-07-13T05:24:07.433Z,22.86
2018-07-13T05:26:33.747Z,23.10
2018-07-13T05:29:00.061Z,23.44
2018-07-13T05:31:26.374Z,23.38
2018-07-13T05:33:52.701Z,23.47
2018-07-13T05:36:19.016Z,23.70
2018-07-13T05:38:45.330Z,24.67
2018-07-13T05:41:11.658Z,26.37
2018-07-13T05:43:37.978Z,27.45
2018-07-13T05:46:04.292Z,26.97
2018-07-13T05:48:30.604Z,27.19
2018-07-13T05:50:56.957Z,26.73
2018-07-13T05:53:23.269Z,26.44
2018-07-13T05:55:49.634Z,27.16
2018-07-13T05:58:15.948Z,27.49
2018-07-13T06:00:42.265Z,28.08
2018-07-13T06:03:08.572Z,28.33
2018-07-13T06:05:34.929Z,28.69
2018-07-13T06:08:01.241Z,28.44
2018-07-13T06:10:27.603Z,28.44
2018-07-13T06:12:53.911Z,28.78
2018-07-13T06:15:20.223Z,29.09
2018-07-13T06:17:46.540Z,29.22
2018-07-13T06:20:12.850Z,29.06
2018-07-13T06:22:39.173Z,28.42
2018-07-13T06:25:05.488Z,27.93
2018-07-13T06:27:31.801Z,28.45
2018-07-13T06:29:58.125Z,28.83
2018-07-13T06:32:24.475Z,29.04
2018-07-13T06:34:50.769Z,29.74
2018-07-13T06:37:17.092Z,29.04
2018-07-13T06:39:43.424Z,28.74
2018-07-13T06:42:09.734Z,29.23
2018-07-13T06:44:36.111Z,29.83
2018-07-13T06:47:02.444Z,29.91
2018-07-13T06:49:28.755Z,30.32
2018-07-13T06:51:55.068Z,30.15
2018-07-13T06:54:21.382Z,29.94
2018-07-13T06:56:47.766Z,29.84
2018-07-13T06:59:14.063Z,29.77
2018-07-13T07:01:40.384Z,29.28
2018-07-13T07:04:06.750Z,29.53
2018-07-13T07:06:33.060Z,29.58
2018-07-13T07:08:59.376Z,29.55
2018-07-13T07:11:25.693Z,29.49
2018-07-13T07:13:52.005Z,29.46
2018-07-13T07:16:18.351Z,29.28
2018-07-13T07:18:44.692Z,28.84
2018-07-13T07:21:11.030Z,28.13
2018-07-13T07:23:37.340Z,28.91
2018-07-13T07:26:03.655Z,29.74
2018-07-13T07:28:29.964Z,30.46
2018-07-13T07:30:56.285Z,30.78
2018-07-13T07:33:22.636Z,30.65
2018-07-13T07:35:48.973Z,30.73
2018-07-13T07:38:15.306Z,31.04
2018-07-13T07:40:41.617Z,31.11
2018-07-13T07:43:07.936Z,29.43
2018-07-13T07:45:34.257Z,28.64
2018-07-13T07:48:00.574Z,29.13
2018-07-13T07:50:26.898Z,29.51
2018-07-13T07:52:53.205Z,30.15
2018-07-13T07:55:19.520Z,31.23
2018-07-13T07:57:45.838Z,31.61
2018-07-13T08:00:18.251Z,30.58
2018-07-13T08:02:38.470Z,29.76
2018-07-13T08:05:04.783Z,30.73
2018-07-13T08:07:31.146Z,31.34
2018-07-13T08:10:02.222Z,32.06
2018-07-13T08:12:28.533Z,32.21
2018-07-13T08:14:54.878Z,31.71
2018-07-13T08:17:21.147Z,31.54
2018-07-13T08:19:51.908Z,31.57
2018-07-13T08:22:16.882Z,31.85
2018-07-13T08:24:41.379Z,31.69
2018-07-13T08:27:07.692Z,32.06
2018-07-13T08:29:37.101Z,32.61
2018-07-13T08:32:03.516Z,31.96
2018-07-13T08:34:29.989Z,31.65
2018-07-13T08:36:56.261Z,31.25
2018-07-13T08:39:22.614Z,31.82
2018-07-13T08:41:49.008Z,31.97
2018-07-13T08:44:22.541Z,31.66
2018-07-13T08:46:54.282Z,31.94
2018-07-13T08:49:20.625Z,32.24
2018-07-13T08:51:47.057Z,32.66
2018-07-13T08:54:13.282Z,32.86
2018-07-13T08:56:39.625Z,32.50
2018-07-13T08:59:05.969Z,32.12
2018-07-13T09:01:32.322Z,31.93
2018-07-13T09:03:58.651Z,32.26
2018-07-13T09:06:25.081Z,31.97
2018-07-13T09:08:51.406Z,32.81
2018-07-13T09:11:17.779Z,32.85
2018-07-13T09:14:03.793Z,32.93
2018-07-13T09:16:30.105Z,32.67
2018-07-13T09:18:56.446Z,32.74
2018-07-13T09:21:22.792Z,32.23
2018-07-13T09:23:49.134Z,32.55
2018-07-13T09:26:15.484Z,33.01
2018-07-13T09:28:41.837Z,33.77
2018-07-13T09:31:08.205Z,33.74
2018-07-13T09:33:34.484Z,33.42
2018-07-13T09:36:00.824Z,33.43
2018-07-13T09:38:27.228Z,32.99
2018-07-13T09:40:53.609Z,32.72
2018-07-13T09:43:19.927Z,32.18
2018-07-13T09:45:46.207Z,32.05
2018-07-13T09:48:12.538Z,32.54
2018-07-13T09:50:38.845Z,32.31
2018-07-13T09:53:05.158Z,31.81
2018-07-13T09:55:31.468Z,31.01
2018-07-13T09:57:59.976Z,32.58
2018-07-13T10:00:26.348Z,33.25
2018-07-13T10:02:52.658Z,33.79
2018-07-13T10:05:19.046Z,34.19
2018-07-13T10:07:45.365Z,34.29
2018-07-13T10:10:11.721Z,33.80
2018-07-13T10:12:38.078Z,33.92
2018-07-13T10:15:04.429Z,32.63
2018-07-13T10:17:30.751Z,33.27
2018-07-13T10:19:57.074Z,33.88
2018-07-13T10:22:23.456Z,33.63
2018-07-13T10:24:49.763Z,34.24
2018-07-13T10:27:16.108Z,33.83
2018-07-13T10:29:42.454Z,32.53
2018-07-13T10:32:08.795Z,31.56
2018-07-13T10:34:35.136Z,30.84
2018-07-13T10:37:01.476Z,31.71
2018-07-13T10:39:27.861Z,31.99
2018-07-13T10:41:54.195Z,32.47
2018-07-13T10:44:20.608Z,31.39
2018-07-13T10:46:46.950Z,31.91
2018-07-13T10:49:13.303Z,32.51
2018-07-13T10:51:39.661Z,32.51
2018-07-13T10:54:06.005Z,32.25
2018-07-13T10:56:32.288Z,31.35
2018-07-13T10:58:58.611Z,32.39
2018-07-13T11:01:24.924Z,33.20
2018-07-13T11:03:51.268Z,33.61
2018-07-13T11:06:17.630Z,33.47
2018-07-13T11:08:43.972Z,33.67
2018-07-13T11:11:10.310Z,32.62
2018-07-13T11:13:36.685Z,32.29
2018-07-13T11:16:02.989Z,32.79
2018-07-13T11:18:29.306Z,33.26
2018-07-13T11:20:55.642Z,33.00
2018-07-13T11:23:21.956Z,32.93
2018-07-13T11:25:48.292Z,32.56
2018-07-13T11:28:14.608Z,31.26
2018-07-13T11:30:40.914Z,30.44
2018-07-13T11:33:07.254Z,29.95
2018-07-13T11:35:33.603Z,30.12
2018-07-13T11:37:59.968Z,29.63
2018-07-13T11:40:26.284Z,29.19
2018-07-13T11:42:52.610Z,28.58
2018-07-13T11:45:18.962Z,28.00
2018-07-13T11:47:45.320Z,26.71
2018-07-13T11:50:11.654Z,26.80
2018-07-13T11:52:38.000Z,27.18
2018-07-13T11:55:04.378Z,28.06
2018-07-13T11:57:30.657Z,28.29
2018-07-13T11:59:56.991Z,28.42
2018-07-13T12:02:23.305Z,28.21
2018-07-13T12:04:49.646Z,28.60
2018-07-13T12:07:15.922Z,28.82
2018-07-13T12:09:42.238Z,29.00
2018-07-13T12:12:08.595Z,29.17
2018-07-13T12:14:34.903Z,29.11
2018-07-13T12:17:01.222Z,29.07
2018-07-13T12:19:27.540Z,28.44
2018-07-13T12:21:53.901Z,27.67
2018-07-13T12:24:20.199Z,26.82
2018-07-13T12:26:46.493Z,26.98
2018-07-13T12:29:12.804Z,26.83
2018-07-13T12:31:39.126Z,27.12
2018-07-13T12:34:05.437Z,27.39
2018-07-13T12:36:31.749Z,27.13
2018-07-13T12:38:58.070Z,26.77
2018-07-13T12:41:24.381Z,26.63
2018-07-13T12:43:50.732Z,26.29
2018-07-13T12:46:17.044Z,26.31
2018-07-13T12:48:43.367Z,26.38
2018-07-13T12:51:09.728Z,26.68
2018-07-13T12:53:36.044Z,26.76
2018-07-13T12:56:02.380Z,26.63
2018-07-13T12:58:28.690Z,26.73
2018-07-13T13:00:55.028Z,26.71
2018-07-13T13:03:21.339Z,26.92
2018-07-13T13:05:47.650Z,27.03
2018-07-13T13:08:13.963Z,26.68
2018-07-13T13:10:40.284Z,27.28
2018-07-13T13:13:06.588Z,27.89
2018-07-13T13:15:32.909Z,27.69
2018-07-13T13:17:59.257Z,27.37
2018-07-13T13:20:25.536Z,27.32
2018-07-13T13:22:51.844Z,27.45
2018-07-13T13:25:18.171Z,27.37
2018-07-13T13:27:44.517Z,27.60
2018-07-13T13:30:10.865Z,28.15
2018-07-13T13:32:37.172Z,28.64
2018-07-13T13:35:03.526Z,27.63
2018-07-13T13:37:29.840Z,27.26
2018-07-13T13:39:56.153Z,27.80
2018-07-13T13:42:22.523Z,27.13
2018-07-13T13:44:48.889Z,25.99
2018-07-13T13:47:15.207Z,25.21
2018-07-13T13:49:41.529Z,24.47
2018-07-13T13:52:07.845Z,23.17
2018-07-13T13:54:34.200Z,22.26
2018-07-13T13:57:00.510Z,21.96
2018-07-13T13:59:26.821Z,22.17
2018-07-13T14:01:53.156Z,22.66
2018-07-13T14:04:19.459Z,22.55
2018-07-13T14:06:45.780Z,22.52
2018-07-13T14:09:12.158Z,22.53
2018-07-13T14:11:38.481Z,22.33
2018-07-13T14:14:04.796Z,21.99
2018-07-13T14:16:31.109Z,21.80
2018-07-13T14:18:57.443Z,21.43
2018-07-13T14:21:23.814Z,21.74
2018-07-13T14:23:50.122Z,21.98
2018-07-13T14:26:16.436Z,21.75
2018-07-13T14:28:42.756Z,20.78
2018-07-13T14:31:09.115Z,20.31
2018-07-13T14:33:35.434Z,20.18
2018-07-13T14:36:01.772Z,19.87
2018-07-13T14:38:28.121Z,19.85
2018-07-13T14:40:54.446Z,19.59
2018-07-13T14:43:20.789Z,19.69
2018-07-13T14:45:47.112Z,19.97
2018-07-13T14:48:13.437Z,20.17
2018-07-13T14:50:39.754Z,20.72
2018-07-13T14:53:06.134Z,20.68
2018-07-13T14:55:32.464Z,20.85
2018-07-13T14:57:58.783Z,20.81
2018-07-13T15:00:25.126Z,21.08
2018-07-13T15:02:51.457Z,21.20
2018-07-13T15:05:17.779Z,21.18
2018-07-13T15:07:46.336Z,21.35
2018-07-13T15:10:12.719Z,21.67
2018-07-13T15:12:38.990Z,21.62
2018-07-13T15:15:05.408Z,21.55
2018-07-13T15:17:31.864Z,21.61
2018-07-13T15:19:58.137Z,21.61
2018-07-13T15:22:24.471Z,21.48
2018-07-13T15:24:50.801Z,21.48
2018-07-13T15:27:17.140Z,21.46
2018-07-13T15:29:43.471Z,21.39
2018-07-13T15:32:09.852Z,21.55
2018-07-13T15:34:36.126Z,21.82
2018-07-13T15:37:02.461Z,21.66
2018-07-13T15:39:28.790Z,21.68
2018-07-13T15:41:55.106Z,21.79
2018-07-13T15:44:21.429Z,21.42
2018-07-13T15:46:47.754Z,21.51
2018-07-13T15:49:14.081Z,21.67
2018-07-13T15:51:40.391Z,21.40
2018-07-13T15:54:06.719Z,21.41
2018-07-13T15:56:33.039Z,21.47
2018-07-13T15:58:59.468Z,21.73
2018-07-13T16:01:25.719Z,21.68
2018-07-13T16:03:52.078Z,21.94
2018-07-13T16:06:18.402Z,22.29
2018-07-13T16:08:44.723Z,22.57
2018-07-13T16:11:11.041Z,22.94
2018-07-13T16:13:37.365Z,23.13
2018-07-13T16:16:03.751Z,23.28
2018-07-13T16:18:30.079Z,23.50
2018-07-13T16:20:56.396Z,23.62
2018-07-13T16:23:22.716Z,23.75
2018-07-13T16:25:49.029Z,23.88
2018-07-13T16:28:15.387Z,24.04
2018-07-13T16:30:41.667Z,24.13
2018-07-13T16:33:07.975Z,24.20
2018-07-13T16:35:34.292Z,24.28
2018-07-13T16:38:00.610Z,24.43
2018-07-13T16:40:26.924Z,24.52
2018-07-13T16:42:53.241Z,24.65
2018-07-13T16:45:19.574Z,24.77
2018-07-13T16:47:45.892Z,24.83
2018-07-13T16:50:12.205Z,24.87
2018-07-13T16:52:38.527Z,24.95
2018-07-13T16:55:04.871Z,24.98
2018-07-13T16:57:31.151Z,24.97
2018-07-13T16:59:57.463Z,24.93
2018-07-13T17:02:23.818Z,24.89
2018-07-13T17:04:50.128Z,24.80
2018-07-13T17:07:16.451Z,24.66
2018-07-13T17:09:42.759Z,24.45
2018-07-13T17:12:09.077Z,24.27
2018-07-13T17:14:35.403Z,24.13
2018-07-13T17:17:01.717Z,24.13
2018-07-13T17:19:28.030Z,24.02
2018-07-13T17:21:54.391Z,23.92
2018-07-13T17:24:20.710Z,23.87
2018-07-13T17:26:47.053Z,23.78
2018-07-13T17:29:13.333Z,23.77
2018-07-13T17:31:39.647Z,23.72
2018-07-13T17:34:05.980Z,23.73
2018-07-13T17:36:32.299Z,23.64
2018-07-13T17:38:58.609Z,23.57
2018-07-13T17:41:24.926Z,23.60
2018-07-13T17:43:51.235Z,23.50
2018-07-13T17:46:17.549Z,23.50
2018-07-13T17:48:43.882Z,23.44
2018-07-13T17:51:10.197Z,23.47
2018-07-13T17:53:37.933Z,23.55
2018-07-13T17:56:04.245Z,23.62
2018-07-13T17:58:30.604Z,23.54
2018-07-13T18:00:57.032Z,23.48
2018-07-13T18:03:23.267Z,23.46
2018-07-13T18:05:49.584Z,23.40
2018-07-13T18:08:15.940Z,23.39
2018-07-13T18:10:42.264Z,23.31
2018-07-13T18:13:08.584Z,23.17
2018-07-13T18:15:34.897Z,23.10
2018-07-13T18:18:01.218Z,23.14
2018-07-13T18:20:27.548Z,23.13
2018-07-13T18:22:53.916Z,23.13
2018-07-13T18:25:20.211Z,23.14
2018-07-13T18:27:46.542Z,23.16
2018-07-13T18:30:12.907Z,23.12
2018-07-13T18:32:39.222Z,23.21
2018-07-13T18:35:05.544Z,23.20
2018-07-13T18:37:31.852Z,23.19
2018-07-13T18:39:58.179Z,23.15
2018-07-13T18:42:24.510Z,23.12
2018-07-13T18:44:50.836Z,23.18
2018-07-13T18:47:17.175Z,23.22
2018-07-13T18:49:43.497Z,23.17
2018-07-13T18:52:09.806Z,23.13
2018-07-13T18:54:36.126Z,23.08
2018-07-13T18:57:02.442Z,23.03
2018-07-13T18:59:28.788Z,23.08
2018-07-13T19:01:55.105Z,23.16
2018-07-13T19:04:21.453Z,23.21
2018-07-13T19:06:47.814Z,23.15
2018-07-13T19:09:14.171Z,22.92
2018-07-13T19:11:40.452Z,22.74
2018-07-13T19:14:06.775Z,22.67
2018-07-13T19:16:33.084Z,22.63
2018-07-13T19:18:59.405Z,22.61
2018-07-13T19:21:25.716Z,22.60
2018-07-13T19:23:52.039Z,22.63
2018-07-13T19:26:18.357Z,22.69
2018-07-13T19:28:44.681Z,22.56
2018-07-13T19:31:11.100Z,22.41
2018-07-13T19:33:37.410Z,22.39
2018-07-13T19:36:03.691Z,22.39
2018-07-13T19:38:30.009Z,22.43
2018-07-13T19:40:56.357Z,22.45
2018-07-13T19:43:22.670Z,22.49
2018-07-13T19:45:49.022Z,22.46
2018-07-13T19:48:15.337Z,22.43
2018-07-13T19:50:41.658Z,22.33
2018-07-13T19:53:07.974Z,22.22
2018-07-13T19:55:34.298Z,22.19
2018-07-13T19:58:00.608Z,22.25
2018-07-13T20:00:26.915Z,22.26
2018-07-13T20:02:53.302Z,22.29
2018-07-13T20:05:19.588Z,22.22
2018-07-13T20:07:45.937Z,22.26
2018-07-13T20:10:12.257Z,22.28
2018-07-13T20:12:38.572Z,22.35
2018-07-13T20:15:04.890Z,22.49
2018-07-13T20:17:31.196Z,22.57
2018-07-13T20:19:57.510Z,22.53
2018-07-13T20:22:23.826Z,22.30
2018-07-13T20:24:50.136Z,22.21
2018-07-13T20:27:16.456Z,22.20
2018-07-13T20:29:42.776Z,22.34
2018-07-13T20:32:09.091Z,22.22
2018-07-13T20:34:35.474Z,22.17
2018-07-13T20:37:01.833Z,21.95
2018-07-13T20:39:28.218Z,21.91
2018-07-13T20:41:54.488Z,21.87
2018-07-13T20:44:20.796Z,21.80
2018-07-13T20:46:47.149Z,21.66
2018-07-13T20:49:13.460Z,21.60
2018-07-13T20:51:39.772Z,21.66
2018-07-13T20:54:06.129Z,21.78
2018-07-13T20:56:32.408Z,21.64
2018-07-13T20:58:58.712Z,21.62
2018-07-13T21:01:25.029Z,21.65
2018-07-13T21:03:51.405Z,21.51
2018-07-13T21:06:17.726Z,21.44
2018-07-13T21:08:44.043Z,21.46
2018-07-13T21:11:10.395Z,21.42
2018-07-13T21:13:36.708Z,21.44
2018-07-13T21:16:03.018Z,21.57
2018-07-13T21:18:29.335Z,21.35
2018-07-13T21:20:55.667Z,21.21
2018-07-13T21:23:21.977Z,21.20
2018-07-13T21:25:48.340Z,20.95
2018-07-13T21:28:14.659Z,20.92
2018-07-13T21:30:41.001Z,21.00
2018-07-13T21:33:07.316Z,21.23
2018-07-13T21:35:33.645Z,21.45
2018-07-13T21:37:59.961Z,21.47
2018-07-13T21:40:26.274Z,21.41
2018-07-13T21:42:52.612Z,21.22
2018-07-13T21:45:19.031Z,21.11
2018-07-13T21:47:45.245Z,21.09
2018-07-13T21:50:11.651Z,21.26
2018-07-13T21:52:37.964Z,21.25
2018-07-13T21:55:04.345Z,21.27
2018-07-13T21:57:30.658Z,21.44
2018-07-13T21:59:57.007Z,21.56
2018-07-13T22:02:23.333Z,21.51
2018-07-13T22:04:49.635Z,21.36
2018-07-13T22:07:15.957Z,21.43
2018-07-13T22:09:42.333Z,21.54
2018-07-13T22:12:08.631Z,21.51
2018-07-13T22:14:34.939Z,21.49
2018-07-13T22:17:01.247Z,21.64
2018-07-13T22:19:27.604Z,21.61
2018-07-13T22:21:53.951Z,21.49
2018-07-13T22:24:20.232Z,21.41
2018-07-13T22:26:46.594Z,21.48
2018-07-13T22:29:12.948Z,21.58
2018-07-13T22:31:39.293Z,21.64
2018-07-13T22:34:05.568Z,21.59
2018-07-13T22:36:31.888Z,21.42
2018-07-13T22:38:58.207Z,21.23
2018-07-13T22:41:24.533Z,21.08
2018-07-13T22:43:50.841Z,20.98
2018-07-13T22:46:17.148Z,20.96
2018-07-13T22:48:43.466Z,20.94
2018-07-13T22:51:09.797Z,20.91
2018-07-13T22:53:36.087Z,20.86
2018-07-13T22:56:02.406Z,20.82
2018-07-13T22:58:28.723Z,20.86
2018-07-13T23:00:55.037Z,20.99
2018-07-13T23:03:21.354Z,20.96
2018-07-13T23:05:47.664Z,20.96
2018-07-13T23:08:13.976Z,20.88
2018-07-13T23:10:40.318Z,20.82
2018-07-13T23:13:06.612Z,20.87
2018-07-13T23:15:32.929Z,20.91
2018-07-13T23:17:59.285Z,20.95
2018-07-13T23:20:25.661Z,21.00
2018-07-13T23:22:51.970Z,21.05
2018-07-13T23:25:18.331Z,20.87
2018-07-13T23:27:44.644Z,20.86
2018-07-13T23:30:10.999Z,20.94
2018-07-13T23:32:37.316Z,20.98
2018-07-13T23:35:03.660Z,20.92
2018-07-13T23:37:29.936Z,21.00
2018-07-13T23:39:56.249Z,20.97
2018-07-13T23:42:22.569Z,21.04
2018-07-13T23:44:48.879Z,20.99
2018-07-13T23:47:15.203Z,20.98
2018-07-13T23:49:41.516Z,21.03
2018-07-13T23:52:07.839Z,21.04
2018-07-13T23:54:34.160Z,21.01
2018-07-13T23:57:00.477Z,20.99
2018-07-13T23:59:26.799Z,21.01
